Time;durP1;ratioP1;P1;durP2;ratioP2;P2;SDS_P1;SDS_P2;PMS_P1;PMS_P2;Temp;Humidity;BMP_temperature;BMP_pressure;BME280_temperature;BME280_humidity;BME280_pressure;Samples;Min_cycle;Max_cycle;Signal;HPM_P1;HPM_P2
2022/07/02 00:00:53;;;;;;;;;;;;;;;;;;5032224;28;19987;-60
2022/07/02 00:03:21;;;;;;;;;;;;;;;;;;5034202;28;19936;-60
2022/07/02 00:05:48;;;;;;;;;;;;;;;;;;5034327;28;19968;-60
2022/07/02 00:08:17;;;;;;;;;;;;;;;;;;5034091;28;19929;-61
2022/07/02 00:10:44;;;;;;;;;;;;;;;;;;5033779;28;19926;-61
2022/07/02 00:13:10;;;;;;;;;;;;;;;;;;5033632;28;20582;-61
2022/07/02 00:15:37;;;;;;;;;;;;;;;;;;5034245;28;19925;-60
2022/07/02 00:18:05;;;;;;;;;;;;;;;;;;5034028;28;19972;-61
2022/07/02 00:20:32;;;;;;;;;;;;;;;;;;5033832;28;20413;-60
2022/07/02 00:22:58;;;;;;;;;;;;;;;;;;5033895;28;20220;-62
2022/07/02 00:25:26;;;;;;;;;;;;;;;;;;5033776;28;19929;-61
2022/07/02 00:27:52;;;;;;;;;;;;;;;;;;5034072;28;20456;-61
2022/07/02 00:30:19;;;;;;;;;;;;;;;;;;5033516;28;19929;-59
2022/07/02 00:32:47;;;;;;;;;;;;;;;;;;5033836;28;19925;-61
2022/07/02 00:35:15;;;;;;;;;;;;;;;;;;5033769;28;19925;-61
2022/07/02 00:37:42;;;;;;;;;;;;;;;;;;5033725;28;19929;-61
2022/07/02 00:40:09;;;;;;;;;;;;;;;;;;5033443;28;20432;-59
2022/07/02 00:42:36;;;;;;;;;;;;;;;;;;5033723;28;19926;-61
2022/07/02 00:45:03;;;;;;;;;;;;;;;;;;5033755;28;19952;-61
2022/07/02 00:47:30;;;;;;;;;;;;;;;;;;5033504;28;19926;-61
2022/07/02 00:49:57;;;;;;;;;;;;;;;;;;5033576;28;19977;-61
2022/07/02 00:52:24;;;;;;;;;;;;;;;;;;5033374;28;19979;-61
2022/07/02 00:54:51;;;;;;;;;;;;;;;;;;5033223;28;20378;-61
2022/07/02 00:57:18;;;;;;;;;;;;;;;;;;5033440;28;20382;-61
2022/07/02 00:59:45;;;;;;;;;;;;;;;;;;5024819;28;19956;-62
2022/07/02 01:02:11;;;;;;;;;;;;;;;;;;5013507;28;20287;-59
2022/07/02 01:04:40;;;;;;;;;;;;;;;;;;5013464;28;20446;-59
2022/07/02 01:07:07;;;;;;;;;;;;;;;;;;5013188;28;19980;-59
2022/07/02 01:12:23;;;;;;;;;;;;;;;;;;5013416;28;19931;-58
2022/07/02 01:14:50;;;;;;;;;;;;;;;;;;5013289;28;19925;-59
2022/07/02 01:17:16;;;;;;;;;;;;;;;;;;5013347;28;19925;-62
2022/07/02 01:19:43;;;;;;;;;;;;;;;;;;5012653;28;19972;-59
2022/07/02 01:22:12;;;;;;;;;;;;;;;;;;5013186;28;19930;-60
2022/07/02 01:24:39;;;;;;;;;;;;;;;;;;5012406;28;19925;-60
2022/07/02 01:27:06;;;;;;;;;;;;;;;;;;5013339;28;19979;-60
2022/07/02 01:29:32;;;;;;;;;;;;;;;;;;5012759;28;19925;-60
2022/07/02 01:31:59;;;;;;;;;;;;;;;;;;5012956;28;20152;-60
2022/07/02 01:34:26;;;;;;;;;;;;;;;;;;5012786;28;20403;-60
2022/07/02 01:36:52;;;;;;;;;;;;;;;;;;5013125;28;20314;-59
2022/07/02 01:39:25;;;;;;;;;;;;;;;;;;5012587;28;19964;-60
2022/07/02 01:41:51;;;;;;;;;;;;;;;;;;5012805;28;19984;-60
2022/07/02 01:44:18;;;;;;;;;;;;;;;;;;5012630;28;19975;-60
2022/07/02 01:46:45;;;;;;;;;;;;;;;;;;5012561;28;19925;-60
2022/07/02 01:49:11;;;;;;;;;;;;;;;;;;5012593;28;19925;-60
2022/07/02 01:51:38;;;;;;;;;;;;;;;;;;5012856;28;19981;-60
2022/07/02 01:54:04;;;;;;;;;;;;;;;;;;5012616;28;19960;-60
2022/07/02 01:56:33;;;;;;;;;;;;;;;;;;5012641;28;19930;-60
2022/07/02 01:58:59;;;;;;;;;;;;;;;;;;5014805;28;19925;-60
2022/07/02 02:01:26;;;;;;;;;;;;;;;;;;5031766;28;19969;-60
2022/07/02 02:03:52;;;;;;;;;;;;;;;;;;5032596;28;19925;-60
2022/07/02 02:06:19;;;;;;;;;;;;;;;;;;5032219;28;19925;-60
2022/07/02 02:08:45;;;;;;;;;;;;;;;;;;5032218;28;19983;-60
2022/07/02 02:11:12;;;;;;;;;;;;;;;;;;5032166;28;19925;-60
2022/07/02 02:13:40;;;;;;;;;;;;;;;;;;5032233;28;19925;-60
2022/07/02 02:16:06;;;;;;;;;;;;;;;;;;5031945;28;19971;-61
2022/07/02 02:18:33;;;;;;;;;;;;;;;;;;5032130;28;19928;-61
2022/07/02 02:21:00;;;;;;;;;;;;;;;;;;5031773;28;20299;-60
2022/07/02 02:23:26;;;;;;;;;;;;;;;;;;5032014;28;19979;-60
2022/07/02 02:28:20;;;;;;;;;;;;;;;;;;5010375;28;19926;-67
2022/07/02 02:30:48;;;;;;;;;;;;;;;;;;5012071;28;19940;-64
2022/07/02 02:33:14;;;;;;;;;;;;;;;;;;5012571;28;20007;-67
2022/07/02 02:35:41;;;;;;;;;;;;;;;;;;5012180;28;20390;-66
2022/07/02 02:38:07;;;;;;;;;;;;;;;;;;5016125;28;19977;-67
2022/07/02 02:40:34;;;;;;;;;;;;;;;;;;5016051;28;19932;-67
2022/07/02 02:43:00;;;;;;;;;;;;;;;;;;5015836;28;19973;-66
2022/07/02 02:45:27;;;;;;;;;;;;;;;;;;5015944;28;19988;-67
2022/07/02 02:47:55;;;;;;;;;;;;;;;;;;5016107;28;20016;-66
2022/07/02 02:50:21;;;;;;;;;;;;;;;;;;5015705;28;20383;-66
2022/07/02 02:52:48;;;;;;;;;;;;;;;;;;5015878;28;19983;-66
2022/07/02 02:55:14;;;;;;;;;;;;;;;;;;5015728;28;19930;-66
2022/07/02 02:57:41;;;;;;;;;;;;;;;;;;5015861;28;20409;-66
2022/07/02 03:00:08;;;;;;;;;;;;;;;;;;5015525;28;19980;-66
2022/07/02 03:02:37;;;;;;;;;;;;;;;;;;5015634;28;19929;-66
2022/07/02 03:05:05;;;;;;;;;;;;;;;;;;5012475;28;19925;-67
2022/07/02 03:07:32;;;;;;;;;;;;;;;;;;5015648;28;19930;-65
2022/07/02 03:09:58;;;;;;;;;;;;;;;;;;5015081;28;19984;-65
2022/07/02 03:12:25;;;;;;;;;;;;;;;;;;5015537;28;20000;-65
2022/07/02 03:14:51;;;;;;;;;;;;;;;;;;5015359;28;19980;-65
2022/07/02 03:17:18;;;;;;;;;;;;;;;;;;5015374;28;19925;-65
2022/07/02 03:19:45;;;;;;;;;;;;;;;;;;5015159;28;19926;-65
2022/07/02 03:22:13;;;;;;;;;;;;;;;;;;5015423;28;20021;-65
2022/07/02 03:24:40;;;;;;;;;;;;;;;;;;5015294;28;19926;-65
2022/07/02 03:27:06;;;;;;;;;;;;;;;;;;5015218;28;19926;-65
2022/07/02 03:29:33;;;;;;;;;;;;;;;;;;5015177;28;19926;-65
2022/07/02 03:31:59;;;;;;;;;;;;;;;;;;5015124;28;20379;-65
2022/07/02 03:34:26;;;;;;;;;;;;;;;;;;5015152;28;19979;-65
2022/07/02 03:36:52;;;;;;;;;;;;;;;;;;5015046;28;20379;-65
2022/07/02 03:39:20;;;;;;;;;;;;;;;;;;5014716;28;19926;-65
2022/07/02 03:41:47;;;;;;;;;;;;;;;;;;5015042;28;20413;-65
2022/07/02 03:44:13;;;;;;;;;;;;;;;;;;5014936;28;20401;-65
2022/07/02 03:46:40;;;;;;;;;;;;;;;;;;5015054;28;19933;-65
2022/07/02 03:49:06;;;;;;;;;;;;;;;;;;5014118;28;19926;-65
2022/07/02 03:51:33;;;;;;;;;;;;;;;;;;5014605;28;20339;-65
2022/07/02 03:53:59;;;;;;;;;;;;;;;;;;5014864;28;19972;-65
2022/07/02 03:56:28;;;;;;;;;;;;;;;;;;5014676;28;20346;-65
2022/07/02 03:58:55;;;;;;;;;;;;;;;;;;5014595;28;19981;-66
2022/07/02 04:01:21;;;;;;;;;;;;;;;;;;5014342;28;20302;-66
2022/07/02 04:03:48;;;;;;;;;;;;;;;;;;5014669;28;20037;-65
2022/07/02 04:06:14;;;;;;;;;;;;;;;;;;5014567;28;19926;-65
2022/07/02 04:08:41;;;;;;;;;;;;;;;;;;5014589;28;19925;-65
2022/07/02 04:11:07;;;;;;;;;;;;;;;;;;5014140;28;19956;-65
2022/07/02 04:13:35;;;;;;;;;;;;;;;;;;5014497;28;19925;-65
2022/07/02 04:16:02;;;;;;;;;;;;;;;;;;5014229;28;19926;-65
2022/07/02 04:18:28;;;;;;;;;;;;;;;;;;5014387;28;19988;-66
2022/07/02 04:20:55;;;;;;;;;;;;;;;;;;5014129;28;19925;-65
2022/07/02 04:23:21;;;;;;;;;;;;;;;;;;5014260;28;20354;-65
2022/07/02 04:25:48;;;;;;;;;;;;;;;;;;5014221;28;19988;-66
2022/07/02 04:28:14;;;;;;;;;;;;;;;;;;5014164;28;20378;-66
2022/07/02 04:30:42;;;;;;;;;;;;;;;;;;5013926;28;20040;-66
2022/07/02 04:33:09;;;;;;;;;;;;;;;;;;5014326;28;19925;-66
2022/07/02 04:35:35;;;;;;;;;;;;;;;;;;5014246;28;20390;-67
2022/07/02 04:38:02;;;;;;;;;;;;;;;;;;5014042;28;20445;-66
2022/07/02 04:40:28;;;;;;;;;;;;;;;;;;5013823;28;19925;-66
2022/07/02 04:42:55;;;;;;;;;;;;;;;;;;5013786;28;20436;-66
2022/07/02 04:45:21;;;;;;;;;;;;;;;;;;5014041;28;19929;-66
2022/07/02 04:47:49;;;;;;;;;;;;;;;;;;5014021;28;19972;-66
2022/07/02 04:50:16;;;;;;;;;;;;;;;;;;5013596;28;19926;-66
2022/07/02 04:52:42;;;;;;;;;;;;;;;;;;5013821;28;19933;-66
2022/07/02 04:55:09;;;;;;;;;;;;;;;;;;5013770;28;19948;-66
2022/07/02 04:57:35;;;;;;;;;;;;;;;;;;5013041;28;20406;-66
2022/07/02 05:00:02;;;;;;;;;;;;;;;;;;5012256;28;19972;-66
2022/07/02 05:02:29;;;;;;;;;;;;;;;;;;5013694;28;19926;-66
2022/07/02 05:04:56;;;;;;;;;;;;;;;;;;5013720;28;20283;-66
2022/07/02 05:07:23;;;;;;;;;;;;;;;;;;5013092;28;19926;-66
2022/07/02 05:09:49;;;;;;;;;;;;;;;;;;5013123;28;20421;-66
2022/07/02 05:12:16;;;;;;;;;;;;;;;;;;5013320;28;20369;-66
2022/07/02 05:14:43;;;;;;;;;;;;;;;;;;5013523;28;20386;-66
2022/07/02 05:17:09;;;;;;;;;;;;;;;;;;5013050;28;19929;-66
2022/07/02 05:19:36;;;;;;;;;;;;;;;;;;5012898;28;19926;-66
2022/07/02 05:22:04;;;;;;;;;;;;;;;;;;5012786;28;19925;-66
2022/07/02 05:24:30;;;;;;;;;;;;;;;;;;5013169;28;19929;-66
2022/07/02 05:26:57;;;;;;;;;;;;;;;;;;5012881;28;19929;-66
2022/07/02 05:29:23;;;;;;;;;;;;;;;;;;5012774;28;19926;-66
2022/07/02 05:31:50;;;;;;;;;;;;;;;;;;5012570;28;19932;-65
2022/07/02 05:34:16;;;;;;;;;;;;;;;;;;5013322;28;19925;-65
2022/07/02 05:36:43;;;;;;;;;;;;;;;;;;5012954;28;20386;-65
2022/07/02 05:39:11;;;;;;;;;;;;;;;;;;5013157;28;20271;-65
2022/07/02 05:41:37;;;;;;;;;;;;;;;;;;5013119;28;19965;-65
2022/07/02 05:44:04;;;;;;;;;;;;;;;;;;5013222;28;19933;-64
2022/07/02 05:46:31;;;;;;;;;;;;;;;;;;5013095;28;19932;-62
2022/07/02 05:48:58;;;;;;;;;;;;;;;;;;5013029;28;19930;-64
2022/07/02 05:51:24;;;;;;;;;;;;;;;;;;5012547;28;19926;-66
2022/07/02 05:53:51;;;;;;;;;;;;;;;;;;5012888;28;20146;-63
2022/07/02 05:56:19;;;;;;;;;;;;;;;;;;5012836;28;19980;-62
2022/07/02 05:58:45;;;;;;;;;;;;;;;;;;5012582;28;19925;-63
2022/07/02 06:01:12;;;;;;;;;;;;;;;;;;4992753;28;20441;-62
2022/07/02 06:03:38;;;;;;;;;;;;;;;;;;4993627;28;19970;-64
2022/07/02 06:08:49;;;;;;;;;;;;;;;;;;4993473;28;19933;-64
2022/07/02 06:11:15;;;;;;;;;;;;;;;;;;4992306;28;20386;-61
2022/07/02 06:13:43;;;;;;;;;;;;;;;;;;4993021;28;19926;-62
2022/07/02 06:16:10;;;;;;;;;;;;;;;;;;4992794;28;20288;-61
2022/07/02 06:18:36;;;;;;;;;;;;;;;;;;4992794;28;19926;-62
2022/07/02 06:21:03;;;;;;;;;;;;;;;;;;4992520;28;19933;-63
2022/07/02 06:23:29;;;;;;;;;;;;;;;;;;4992787;28;19984;-63
2022/07/02 06:25:56;;;;;;;;;;;;;;;;;;4992644;28;20008;-63
2022/07/02 06:28:23;;;;;;;;;;;;;;;;;;4993013;28;19996;-63
2022/07/02 06:30:51;;;;;;;;;;;;;;;;;;4992582;28;20020;-62
2022/07/02 06:33:18;;;;;;;;;;;;;;;;;;4992864;28;20429;-63
2022/07/02 06:35:44;;;;;;;;;;;;;;;;;;4992744;28;19925;-63
2022/07/02 06:38:11;;;;;;;;;;;;;;;;;;4992662;28;19926;-63
2022/07/02 06:40:38;;;;;;;;;;;;;;;;;;4992365;28;19925;-63
2022/07/02 06:43:04;;;;;;;;;;;;;;;;;;4992552;28;20269;-63
2022/07/02 06:45:31;;;;;;;;;;;;;;;;;;4992809;28;20050;-63
2022/07/02 06:47:59;;;;;;;;;;;;;;;;;;4992672;28;20005;-63
2022/07/02 06:50:25;;;;;;;;;;;;;;;;;;4992443;28;19932;-63
2022/07/02 06:52:52;;;;;;;;;;;;;;;;;;4992481;28;19925;-63
2022/07/02 06:55:20;;;;;;;;;;;;;;;;;;4992668;28;19980;-63
2022/07/02 06:57:47;;;;;;;;;;;;;;;;;;4992891;28;19925;-63
2022/07/02 07:00:14;;;;;;;;;;;;;;;;;;5004550;28;20036;-63
2022/07/02 07:02:40;;;;;;;;;;;;;;;;;;5012141;28;19933;-62
2022/07/02 07:05:08;;;;;;;;;;;;;;;;;;5012272;28;19925;-63
2022/07/02 07:07:36;;;;;;;;;;;;;;;;;;5012082;28;19926;-63
2022/07/02 07:10:03;;;;;;;;;;;;;;;;;;5012070;28;19925;-63
2022/07/02 07:12:29;;;;;;;;;;;;;;;;;;5011951;28;19968;-63
2022/07/02 07:14:59;;;;;;;;;;;;;;;;;;5011905;28;19925;-62
2022/07/02 07:17:25;;;;;;;;;;;;;;;;;;5011817;28;19933;-63
2022/07/02 07:19:52;;;;;;;;;;;;;;;;;;5011809;28;19987;-62
2022/07/02 07:22:20;;;;;;;;;;;;;;;;;;5011799;28;19987;-61
2022/07/02 07:24:46;;;;;;;;;;;;;;;;;;5015016;28;19925;-63
2022/07/02 07:27:13;;;;;;;;;;;;;;;;;;5015201;28;19926;-63
2022/07/02 07:29:39;;;;;;;;;;;;;;;;;;5014877;28;19929;-62
2022/07/02 07:32:06;;;;;;;;;;;;;;;;;;5015254;28;20457;-62
2022/07/02 07:34:33;;;;;;;;;;;;;;;;;;5015735;28;20417;-64
2022/07/02 07:36:59;;;;;;;;;;;;;;;;;;5015641;28;19944;-63
2022/07/02 07:39:27;;;;;;;;;;;;;;;;;;5014928;28;19929;-63
2022/07/02 07:41:54;;;;;;;;;;;;;;;;;;5015042;28;19925;-63
2022/07/02 07:44:20;;;;;;;;;;;;;;;;;;5015096;28;19984;-62
2022/07/02 07:46:47;;;;;;;;;;;;;;;;;;5015111;28;19937;-63
2022/07/02 07:49:15;;;;;;;;;;;;;;;;;;5014801;28;19926;-62
2022/07/02 07:51:41;;;;;;;;;;;;;;;;;;5014991;28;19926;-63
2022/07/02 07:54:08;;;;;;;;;;;;;;;;;;5014744;28;19929;-63
2022/07/02 07:56:36;;;;;;;;;;;;;;;;;;5014812;28;19926;-62
2022/07/02 07:59:02;;;;;;;;;;;;;;;;;;5012153;28;19925;-62
2022/07/02 08:01:29;;;;;;;;;;;;;;;;;;4995174;28;19992;-63
2022/07/02 08:03:56;;;;;;;;;;;;;;;;;;4995508;28;19925;-63
2022/07/02 08:06:22;;;;;;;;;;;;;;;;;;4995241;28;19926;-62
2022/07/02 08:08:49;;;;;;;;;;;;;;;;;;4994875;28;19926;-62
2022/07/02 08:11:15;;;;;;;;;;;;;;;;;;4994662;28;20375;-61
2022/07/02 08:13:43;;;;;;;;;;;;;;;;;;4994944;28;19933;-62
2022/07/02 08:16:10;;;;;;;;;;;;;;;;;;4995064;28;19926;-62
2022/07/02 08:18:37;;;;;;;;;;;;;;;;;;4994681;28;19925;-62
2022/07/02 08:21:03;;;;;;;;;;;;;;;;;;4994740;28;19949;-62
2022/07/02 08:23:30;;;;;;;;;;;;;;;;;;4994800;28;19926;-62
2022/07/02 08:25:57;;;;;;;;;;;;;;;;;;4994716;28;19926;-62
2022/07/02 08:28:23;;;;;;;;;;;;;;;;;;4994551;28;19926;-63
2022/07/02 08:30:52;;;;;;;;;;;;;;;;;;4994369;28;19925;-62
2022/07/02 08:33:18;;;;;;;;;;;;;;;;;;4994447;28;20009;-62
2022/07/02 08:35:45;;;;;;;;;;;;;;;;;;4994303;28;20391;-62
2022/07/02 08:38:11;;;;;;;;;;;;;;;;;;4994253;28;19933;-62
2022/07/02 08:40:41;;;;;;;;;;;;;;;;;;4994337;28;20003;-62
2022/07/02 08:43:08;;;;;;;;;;;;;;;;;;4994442;28;19926;-62
2022/07/02 08:45:35;;;;;;;;;;;;;;;;;;4994447;28;20025;-62
2022/07/02 08:48:04;;;;;;;;;;;;;;;;;;4994305;28;20302;-62
2022/07/02 08:50:31;;;;;;;;;;;;;;;;;;4994077;28;19930;-62
2022/07/02 08:52:58;;;;;;;;;;;;;;;;;;4993940;28;20399;-62
2022/07/02 08:55:24;;;;;;;;;;;;;;;;;;4994138;28;19966;-62
2022/07/02 08:57:51;;;;;;;;;;;;;;;;;;4993978;28;20343;-62
2022/07/02 09:00:19;;;;;;;;;;;;;;;;;;5027485;22;19975;-61
2022/07/02 09:02:49;;;;;;;;;;;;;;;;;;5033229;28;19933;-62
2022/07/02 09:05:18;;;;;;;;;;;;;;;;;;5035364;28;20352;-62
2022/07/02 09:07:45;;;;;;;;;;;;;;;;;;5033292;28;20314;-62
2022/07/02 09:10:11;;;;;;;;;;;;;;;;;;5033144;28;19925;-62
2022/07/02 09:12:39;;;;;;;;;;;;;;;;;;5035328;28;19925;-62
2022/07/02 09:15:05;;;;;;;;;;;;;;;;;;5038708;28;19929;-62
2022/07/02 09:17:32;;;;;;;;;;;;;;;;;;5033090;28;19932;-63
2022/07/02 09:19:59;;;;;;;;;;;;;;;;;;5033021;28;19929;-63
2022/07/02 09:22:33;;;;;;;;;;;;;;;;;;5033123;28;19925;-63
2022/07/02 09:25:07;;;;;;;;;;;;;;;;;;5033819;28;19929;-62
2022/07/02 09:27:33;;;;;;;;;;;;;;;;;;5033148;28;19932;-62
2022/07/02 09:30:00;;;;;;;;;;;;;;;;;;5032710;28;19925;-62
2022/07/02 09:32:26;;;;;;;;;;;;;;;;;;5033158;28;20305;-64
2022/07/02 09:34:54;;;;;;;;;;;;;;;;;;5032864;28;19932;-63
2022/07/02 09:37:21;;;;;;;;;;;;;;;;;;5032885;28;19931;-62
2022/07/02 09:39:50;;;;;;;;;;;;;;;;;;5032278;28;19932;-63
2022/07/02 09:42:27;;;;;;;;;;;;;;;;;;5032690;28;19961;-62
2022/07/02 09:44:53;;;;;;;;;;;;;;;;;;5032553;28;19925;-63
2022/07/02 09:47:30;;;;;;;;;;;;;;;;;;5032480;28;19925;-63
2022/07/02 09:50:07;;;;;;;;;;;;;;;;;;5032706;28;20432;-67
2022/07/02 09:52:34;;;;;;;;;;;;;;;;;;5033494;28;19925;-63
2022/07/02 09:55:02;;;;;;;;;;;;;;;;;;5033667;28;19932;-62
2022/07/02 09:57:29;;;;;;;;;;;;;;;;;;5032545;28;19929;-65
2022/07/02 10:00:03;;;;;;;;;;;;;;;;;;5032211;28;20011;-63
2022/07/02 10:02:33;;;;;;;;;;;;;;;;;;5032657;28;19929;-65
2022/07/02 10:05:04;;;;;;;;;;;;;;;;;;5034517;28;19932;-62
2022/07/02 10:07:31;;;;;;;;;;;;;;;;;;5032668;28;19952;-61
2022/07/02 10:10:01;;;;;;;;;;;;;;;;;;5032291;28;19925;-61
2022/07/02 10:12:29;;;;;;;;;;;;;;;;;;5032389;28;20380;-61
2022/07/02 10:14:58;;;;;;;;;;;;;;;;;;5032649;28;19936;-61
2022/07/02 10:17:24;;;;;;;;;;;;;;;;;;5032549;28;19925;-62
2022/07/02 10:19:52;;;;;;;;;;;;;;;;;;5032153;28;19931;-62
2022/07/02 10:22:22;;;;;;;;;;;;;;;;;;5032548;28;19925;-62
2022/07/02 10:24:49;;;;;;;;;;;;;;;;;;5032529;28;19925;-62
2022/07/02 10:27:17;;;;;;;;;;;;;;;;;;5032514;28;19979;-62
2022/07/02 10:29:45;;;;;;;;;;;;;;;;;;5032191;28;19971;-61
2022/07/02 10:32:17;;;;;;;;;;;;;;;;;;5032619;28;19929;-61
2022/07/02 10:34:52;;;;;;;;;;;;;;;;;;5032298;28;19925;-62
2022/07/02 10:37:19;;;;;;;;;;;;;;;;;;5032394;28;19929;-57
2022/07/02 10:39:45;;;;;;;;;;;;;;;;;;5031841;28;19933;-60
2022/07/02 10:42:12;;;;;;;;;;;;;;;;;;5032356;28;19988;-58
2022/07/02 10:44:39;;;;;;;;;;;;;;;;;;5031897;28;19929;-59
2022/07/02 10:47:16;;;;;;;;;;;;;;;;;;5031832;28;20386;-59
2022/07/02 10:49:43;;;;;;;;;;;;;;;;;;5032559;28;19933;-60
2022/07/02 10:52:09;;;;;;;;;;;;;;;;;;5032091;28;19929;-56
2022/07/02 10:54:36;;;;;;;;;;;;;;;;;;5032088;28;20612;-59
2022/07/02 10:57:03;;;;;;;;;;;;;;;;;;5032910;28;19925;-57
2022/07/02 10:59:35;;;;;;;;;;;;;;;;;;5041862;28;19925;-55
2022/07/02 11:02:03;;;;;;;;;;;;;;;;;;5056002;28;20007;-60
2022/07/02 11:04:31;;;;;;;;;;;;;;;;;;5055743;28;19991;-61
2022/07/02 11:07:05;;;;;;;;;;;;;;;;;;5055864;28;20270;-57
2022/07/02 11:09:32;;;;;;;;;;;;;;;;;;5055600;28;19931;-57
2022/07/02 11:12:00;;;;;;;;;;;;;;;;;;5055539;28;20017;-57
2022/07/02 11:14:28;;;;;;;;;;;;;;;;;;5055235;28;19987;-55
2022/07/02 11:16:56;;;;;;;;;;;;;;;;;;5055410;28;19976;-58
2022/07/02 11:19:24;;;;;;;;;;;;;;;;;;5055004;28;20025;-57
2022/07/02 11:21:54;;;;;;;;;;;;;;;;;;5055458;28;19924;-59
2022/07/02 11:24:21;;;;;;;;;;;;;;;;;;5055537;28;19924;-58
2022/07/02 11:26:48;;;;;;;;;;;;;;;;;;5055341;28;20309;-55
2022/07/02 11:29:15;;;;;;;;;;;;;;;;;;5055140;28;19925;-61
2022/07/02 11:31:43;;;;;;;;;;;;;;;;;;5055106;28;19978;-56
2022/07/02 11:34:10;;;;;;;;;;;;;;;;;;5054876;28;19964;-55
2022/07/02 11:36:37;;;;;;;;;;;;;;;;;;5055049;28;19929;-59
2022/07/02 11:39:10;;;;;;;;;;;;;;;;;;5055001;28;19931;-59
2022/07/02 11:41:37;;;;;;;;;;;;;;;;;;5054698;28;19925;-57
2022/07/02 11:44:13;;;;;;;;;;;;;;;;;;5054934;28;19929;-56
2022/07/02 11:46:39;;;;;;;;;;;;;;;;;;5055008;28;19925;-57
2022/07/02 11:49:14;;;;;;;;;;;;;;;;;;5054644;28;19935;-58
2022/07/02 11:51:41;;;;;;;;;;;;;;;;;;5054726;28;19925;-58
2022/07/02 11:54:10;;;;;;;;;;;;;;;;;;5055209;28;19970;-58
2022/07/02 11:56:38;;;;;;;;;;;;;;;;;;5054867;28;20599;-55
2022/07/02 11:59:05;;;;;;;;;;;;;;;;;;5051796;28;19940;-57
2022/07/02 12:01:33;;;;;;;;;;;;;;;;;;5034253;28;19971;-56
2022/07/02 12:04:02;;;;;;;;;;;;;;;;;;5034801;28;19925;-58
2022/07/02 12:06:30;;;;;;;;;;;;;;;;;;5034711;28;20309;-58
2022/07/02 12:08:57;;;;;;;;;;;;;;;;;;5033715;28;20505;-56
2022/07/02 12:11:25;;;;;;;;;;;;;;;;;;5033997;28;19925;-59
2022/07/02 12:13:52;;;;;;;;;;;;;;;;;;5034589;28;19929;-58
2022/07/02 12:16:20;;;;;;;;;;;;;;;;;;5034408;28;20000;-58
2022/07/02 12:18:56;;;;;;;;;;;;;;;;;;5034144;28;20448;-56
2022/07/02 12:21:23;;;;;;;;;;;;;;;;;;5033767;28;20472;-57
2022/07/02 12:23:50;;;;;;;;;;;;;;;;;;5034294;28;20393;-58
2022/07/02 12:26:22;;;;;;;;;;;;;;;;;;5034045;28;19933;-59
2022/07/02 12:31:42;;;;;;;;;;;;;;;;;;5033781;28;20015;-58
2022/07/02 12:34:08;;;;;;;;;;;;;;;;;;5034020;28;19979;-57
2022/07/02 12:36:44;;;;;;;;;;;;;;;;;;5034055;28;19979;-57
2022/07/02 12:39:10;;;;;;;;;;;;;;;;;;5033799;28;19925;-58
2022/07/02 12:41:38;;;;;;;;;;;;;;;;;;5033365;28;19925;-58
2022/07/02 12:44:06;;;;;;;;;;;;;;;;;;5033873;28;19925;-57
2022/07/02 12:46:32;;;;;;;;;;;;;;;;;;5033672;28;20336;-58
2022/07/02 12:48:59;;;;;;;;;;;;;;;;;;5033690;28;20290;-58
2022/07/02 12:51:25;;;;;;;;;;;;;;;;;;5033406;28;20435;-59
2022/07/02 12:53:56;;;;;;;;;;;;;;;;;;5033654;28;19925;-58
2022/07/02 12:56:22;;;;;;;;;;;;;;;;;;5033718;28;19925;-58
2022/07/02 12:58:49;;;;;;;;;;;;;;;;;;5034228;28;19925;-58
2022/07/02 13:01:17;;;;;;;;;;;;;;;;;;5052993;28;19925;-57
2022/07/02 13:03:44;;;;;;;;;;;;;;;;;;5053741;28;19925;-57
2022/07/02 13:06:10;;;;;;;;;;;;;;;;;;5053285;28;19925;-59
2022/07/02 13:08:37;;;;;;;;;;;;;;;;;;5053280;28;20377;-59
2022/07/02 13:11:04;;;;;;;;;;;;;;;;;;5052575;28;19978;-61
2022/07/02 13:13:31;;;;;;;;;;;;;;;;;;5053359;28;19925;-61
2022/07/02 13:15:57;;;;;;;;;;;;;;;;;;5052910;28;19929;-59
2022/07/02 13:18:25;;;;;;;;;;;;;;;;;;5052987;28;19925;-61
2022/07/02 13:20:52;;;;;;;;;;;;;;;;;;5051746;28;19924;-60
2022/07/02 13:23:19;;;;;;;;;;;;;;;;;;5052792;28;19928;-57
2022/07/02 13:25:46;;;;;;;;;;;;;;;;;;5052722;28;19979;-59
2022/07/02 13:28:12;;;;;;;;;;;;;;;;;;5052911;28;20443;-59
2022/07/02 13:30:39;;;;;;;;;;;;;;;;;;5052584;28;19931;-60
2022/07/02 13:33:06;;;;;;;;;;;;;;;;;;5052792;28;19925;-58
2022/07/02 13:35:33;;;;;;;;;;;;;;;;;;5052673;28;19929;-60
2022/07/02 13:38:00;;;;;;;;;;;;;;;;;;5052843;28;20006;-59
2022/07/02 13:40:27;;;;;;;;;;;;;;;;;;5052105;28;19924;-59
2022/07/02 13:42:53;;;;;;;;;;;;;;;;;;5052753;28;20344;-58
2022/07/02 13:45:20;;;;;;;;;;;;;;;;;;5052459;28;19971;-59
2022/07/02 13:47:46;;;;;;;;;;;;;;;;;;5052468;28;19925;-59
2022/07/02 13:50:13;;;;;;;;;;;;;;;;;;5052495;28;19924;-58
2022/07/02 13:52:41;;;;;;;;;;;;;;;;;;5052214;28;20019;-60
2022/07/02 13:55:08;;;;;;;;;;;;;;;;;;5052233;28;19976;-59
2022/07/02 13:57:35;;;;;;;;;;;;;;;;;;5052237;28;19925;-60
2022/07/02 14:00:03;;;;;;;;;;;;;;;;;;5040916;28;19971;-59
2022/07/02 14:02:29;;;;;;;;;;;;;;;;;;5032352;28;19926;-59
2022/07/02 14:04:56;;;;;;;;;;;;;;;;;;5032396;28;19983;-58
2022/07/02 14:07:23;;;;;;;;;;;;;;;;;;5032117;28;19926;-59
2022/07/02 14:09:51;;;;;;;;;;;;;;;;;;5032332;28;20359;-59
2022/07/02 14:12:17;;;;;;;;;;;;;;;;;;5032215;28;19929;-58
2022/07/02 14:14:45;;;;;;;;;;;;;;;;;;5032237;28;19956;-60
2022/07/02 14:17:12;;;;;;;;;;;;;;;;;;5032406;28;20290;-60
2022/07/02 14:19:38;;;;;;;;;;;;;;;;;;5031849;28;20302;-60
2022/07/02 14:22:05;;;;;;;;;;;;;;;;;;5031812;28;19925;-57
2022/07/02 14:24:31;;;;;;;;;;;;;;;;;;5032005;28;19925;-60
2022/07/02 14:26:59;;;;;;;;;;;;;;;;;;5032045;28;20394;-60
2022/07/02 14:29:26;;;;;;;;;;;;;;;;;;5031999;28;19929;-59
2022/07/02 14:31:53;;;;;;;;;;;;;;;;;;5032213;28;19925;-59
2022/07/02 14:34:19;;;;;;;;;;;;;;;;;;5036101;28;20417;-58
2022/07/02 14:36:46;;;;;;;;;;;;;;;;;;5036022;28;19929;-58
2022/07/02 14:39:14;;;;;;;;;;;;;;;;;;5036006;28;20017;-58
2022/07/02 14:41:41;;;;;;;;;;;;;;;;;;5036258;28;19948;-57
2022/07/02 14:44:09;;;;;;;;;;;;;;;;;;5035901;28;19929;-56
2022/07/02 14:46:36;;;;;;;;;;;;;;;;;;5035866;28;19926;-59
2022/07/02 14:49:03;;;;;;;;;;;;;;;;;;5035766;28;19925;-60
2022/07/02 14:51:29;;;;;;;;;;;;;;;;;;5035376;28;20451;-58
2022/07/02 14:53:56;;;;;;;;;;;;;;;;;;5035639;28;19925;-60
2022/07/02 14:56:23;;;;;;;;;;;;;;;;;;5035859;28;19925;-60
2022/07/02 14:58:49;;;;;;;;;;;;;;;;;;5036218;28;19995;-59
2022/07/02 15:01:17;;;;;;;;;;;;;;;;;;5057169;22;19979;-66
2022/07/02 15:03:44;;;;;;;;;;;;;;;;;;5036020;28;19925;-65
2022/07/02 15:06:11;;;;;;;;;;;;;;;;;;5035928;28;19926;-65
2022/07/02 15:08:37;;;;;;;;;;;;;;;;;;5035758;28;19966;-65
2022/07/02 15:11:04;;;;;;;;;;;;;;;;;;5035829;28;19925;-64
2022/07/02 15:16:11;;;;;;;;;;;;;;;;;;5035009;28;19929;-64
2022/07/02 15:18:39;;;;;;;;;;;;;;;;;;5035497;28;20389;-65
2022/07/02 15:21:09;;;;;;;;;;;;;;;;;;5035382;28;20437;-65
2022/07/02 15:23:36;;;;;;;;;;;;;;;;;;5035325;28;19925;-64
2022/07/02 15:26:03;;;;;;;;;;;;;;;;;;5035450;28;19929;-64
2022/07/02 15:28:31;;;;;;;;;;;;;;;;;;5035389;28;19971;-64
2022/07/02 15:30:57;;;;;;;;;;;;;;;;;;5035287;28;20020;-64
2022/07/02 15:33:29;;;;;;;;;;;;;;;;;;5035358;28;19925;-64
2022/07/02 15:35:57;;;;;;;;;;;;;;;;;;5035401;28;20020;-64
2022/07/02 15:38:25;;;;;;;;;;;;;;;;;;5035225;28;19925;-64
2022/07/02 15:40:53;;;;;;;;;;;;;;;;;;5035059;28;20365;-64
2022/07/02 15:43:19;;;;;;;;;;;;;;;;;;5034475;28;20302;-64
2022/07/02 15:45:46;;;;;;;;;;;;;;;;;;5034831;28;19929;-64
2022/07/02 15:48:14;;;;;;;;;;;;;;;;;;5035350;28;19925;-64
2022/07/02 15:50:42;;;;;;;;;;;;;;;;;;5035017;28;19925;-64
2022/07/02 15:53:13;;;;;;;;;;;;;;;;;;5035319;28;19925;-64
2022/07/02 15:55:40;;;;;;;;;;;;;;;;;;5035073;28;19925;-65
2022/07/02 15:58:15;;;;;;;;;;;;;;;;;;5035070;28;19925;-65
2022/07/02 16:00:42;;;;;;;;;;;;;;;;;;5035006;28;20333;-64
2022/07/02 16:03:10;;;;;;;;;;;;;;;;;;5034946;28;19925;-64
2022/07/02 16:05:39;;;;;;;;;;;;;;;;;;5034748;28;19971;-64
2022/07/02 16:08:06;;;;;;;;;;;;;;;;;;5034965;28;19929;-63
2022/07/02 16:10:35;;;;;;;;;;;;;;;;;;5034581;28;19925;-65
2022/07/02 16:13:02;;;;;;;;;;;;;;;;;;5034512;28;19926;-64
2022/07/02 16:15:28;;;;;;;;;;;;;;;;;;5034638;28;19925;-64
2022/07/02 16:17:55;;;;;;;;;;;;;;;;;;5034456;28;19925;-64
2022/07/02 16:20:22;;;;;;;;;;;;;;;;;;5034237;28;19925;-65
2022/07/02 16:22:49;;;;;;;;;;;;;;;;;;5034175;28;19931;-65
2022/07/02 16:25:15;;;;;;;;;;;;;;;;;;5034452;28;19951;-64
2022/07/02 16:27:43;;;;;;;;;;;;;;;;;;5034345;28;20353;-65
2022/07/02 16:30:11;;;;;;;;;;;;;;;;;;5034318;28;19991;-64
2022/07/02 16:32:44;;;;;;;;;;;;;;;;;;5034252;28;20003;-63
2022/07/02 16:35:12;;;;;;;;;;;;;;;;;;5034190;28;20417;-63
2022/07/02 16:37:40;;;;;;;;;;;;;;;;;;5034259;28;19952;-63
2022/07/02 16:40:09;;;;;;;;;;;;;;;;;;5033953;28;19932;-64
2022/07/02 16:42:36;;;;;;;;;;;;;;;;;;5033920;28;19929;-64
2022/07/02 16:45:05;;;;;;;;;;;;;;;;;;5033943;28;20383;-64
2022/07/02 16:47:35;;;;;;;;;;;;;;;;;;5033392;28;19975;-64
2022/07/02 16:50:04;;;;;;;;;;;;;;;;;;5033629;28;20336;-64
2022/07/02 16:52:32;;;;;;;;;;;;;;;;;;5034069;28;19925;-64
2022/07/02 16:54:59;;;;;;;;;;;;;;;;;;5033960;28;19925;-64
2022/07/02 16:57:26;;;;;;;;;;;;;;;;;;5033553;28;19929;-65
2022/07/02 16:59:54;;;;;;;;;;;;;;;;;;5042793;28;19929;-63